Time;durP1;ratioP1;P1;durP2;ratioP2;P2;SDS_P1;SDS_P2;PMS_P1;PMS_P2;Temp;Humidity;BMP_temperature;BMP_pressure;BME280_temperature;BME280_humidity;BME280_pressure;Samples;Min_cycle;Max_cycle;Signal;HPM_P1;HPM_P2
2023/04/13 00:00:44;;;;;;;4.10;3.80;;;6.00;99.90;;;;;;4999679;28;20191;-79
2023/04/13 00:03:11;;;;;;;5.63;3.70;;;6.00;99.90;;;;;;4999744;28;20207;-79
2023/04/13 00:05:37;;;;;;;4.80;4.40;;;6.00;99.90;;;;;;5017045;28;20237;-80
2023/04/13 00:08:03;;;;;;;4.27;3.90;;;6.10;99.90;;;;;;5017703;28;20195;-80
2023/04/13 00:10:30;;;;;;;4.40;4.00;;;6.10;99.90;;;;;;4999219;28;20535;-80
2023/04/13 00:13:00;;;;;;;3.90;3.70;;;6.10;99.90;;;;;;5017176;28;20608;-80
2023/04/13 00:15:26;;;;;;;4.70;4.07;;;6.10;99.90;;;;;;4999770;28;20203;-80
2023/04/13 00:24:36;;;;;;;4.17;3.77;;;6.10;99.90;;;;;;5020568;28;20209;-83
2023/04/13 00:27:29;;;;;;;5.33;3.87;;;6.20;99.90;;;;;;5020408;28;20183;-83
2023/04/13 00:29:55;;;;;;;3.70;3.50;;;6.30;99.90;;;;;;5002280;28;20637;-80
2023/04/13 00:32:21;;;;;;;5.07;4.10;;;6.30;99.90;;;;;;5002445;28;20237;-81
2023/04/13 00:38:10;;;;;;;3.50;3.30;;;6.40;99.90;;;;;;5020968;28;20211;-80
2023/04/13 00:40:37;;;;;;;4.07;3.40;;;6.40;99.90;;;;;;5020561;28;20196;-80
2023/04/13 00:43:04;;;;;;;3.50;3.30;;;6.50;99.90;;;;;;5020243;28;20230;-80
2023/04/13 00:45:37;;;;;;;5.43;4.50;;;6.70;99.90;;;;;;5019901;28;20194;-81
2023/04/13 00:48:04;;;;;;;3.83;3.53;;;6.80;99.90;;;;;;5002656;28;20598;-83
2023/04/13 00:50:32;;;;;;;5.07;3.80;;;6.80;99.90;;;;;;5002971;28;20191;-84
2023/04/13 00:52:59;;;;;;;4.03;3.73;;;6.70;99.90;;;;;;5003111;28;20180;-84
2023/04/13 00:55:26;;;;;;;5.63;3.50;;;6.70;99.90;;;;;;5002890;28;20262;-84
2023/04/13 00:57:52;;;;;;;7.70;3.97;;;6.80;99.90;;;;;;5021562;28;20196;-84
2023/04/13 01:00:18;;;;;;;3.93;3.27;;;6.80;99.90;;;;;;5021426;28;20176;-84
2023/04/13 01:02:44;;;;;;;3.93;3.73;;;6.80;99.90;;;;;;5020735;28;20528;-84
2023/04/13 01:05:14;;;;;;;4.17;3.53;;;6.80;99.90;;;;;;5002483;28;20218;-84
2023/04/13 01:08:00;;;;;;;3.93;3.60;;;6.80;99.90;;;;;;5003853;28;20612;-86
2023/04/13 01:10:35;;;;;;;4.07;3.60;;;6.80;99.90;;;;;;5004125;28;20184;-85
2023/04/13 01:13:29;;;;;;;6.47;3.57;;;6.90;99.90;;;;;;5003656;28;20171;-85
2023/04/13 01:16:07;;;;;;;4.87;4.33;;;6.80;99.90;;;;;;5021104;28;20171;-84
2023/04/13 01:18:37;;;;;;;3.90;3.70;;;6.70;99.90;;;;;;5002430;28;20207;-84
2023/04/13 01:21:04;;;;;;;4.47;3.57;;;6.70;99.90;;;;;;5021154;28;20245;-85
2023/04/13 01:23:49;;;;;;;4.00;3.70;;;6.70;99.90;;;;;;5003051;28;20195;-85
2023/04/13 01:26:16;;;;;;;4.67;3.70;;;6.70;99.90;;;;;;5002136;28;20171;-85
2023/04/13 01:28:42;;;;;;;4.90;4.30;;;6.70;99.90;;;;;;5003233;28;20204;-85
2023/04/13 01:31:11;;;;;;;6.20;3.87;;;6.70;99.90;;;;;;5019304;28;20182;-81
2023/04/13 01:33:41;;;;;;;4.40;4.00;;;6.70;99.90;;;;;;5018807;28;20199;-81
2023/04/13 01:36:09;;;;;;;4.43;4.03;;;6.70;99.90;;;;;;5018151;28;20172;-81
2023/04/13 01:38:36;;;;;;;4.40;4.10;;;6.60;99.90;;;;;;5017242;28;20175;-83
2023/04/13 01:41:02;;;;;;;5.43;4.33;;;6.60;99.90;;;;;;5000093;28;20532;-84
2023/04/13 01:43:29;;;;;;;3.60;3.30;;;6.60;99.90;;;;;;5020494;28;20259;-87
2023/04/13 01:46:03;;;;;;;4.07;3.83;;;6.60;99.90;;;;;;5019476;28;20204;-88
2023/04/13 01:48:52;;;;;;;3.87;3.67;;;6.60;99.90;;;;;;5019403;28;20560;-88
2023/04/13 01:51:23;;;;;;;4.47;3.83;;;6.60;99.90;;;;;;5002730;28;20172;-89
2023/04/13 01:53:49;;;;;;;5.27;3.90;;;6.60;99.90;;;;;;5019707;28;20218;-89
2023/04/13 01:56:18;;;;;;;5.07;4.10;;;6.50;99.90;;;;;;5002276;28;20179;-88
2023/04/13 01:58:48;;;;;;;3.93;3.63;;;6.50;99.90;;;;;;5002012;28;20180;-84
2023/04/13 02:01:14;;;;;;;4.20;3.90;;;6.40;99.90;;;;;;5002653;28;20647;-84
2023/04/13 02:03:42;;;;;;;4.47;4.00;;;6.50;99.90;;;;;;5019616;28;20192;-90
2023/04/13 02:06:08;;;;;;;4.30;3.90;;;6.40;99.90;;;;;;5002004;28;20667;-90
2023/04/13 02:08:35;;;;;;;4.20;3.70;;;6.50;99.90;;;;;;5020121;28;20307;-89
2023/04/13 02:11:02;;;;;;;6.13;4.20;;;6.50;99.90;;;;;;5002132;28;20186;-84
2023/04/13 02:13:29;;;;;;;5.93;3.93;;;6.50;99.90;;;;;;5003032;28;20263;-89
2023/04/13 02:15:55;;;;;;;4.10;3.70;;;6.60;99.90;;;;;;5001372;28;20226;-89
2023/04/13 02:18:22;;;;;;;4.40;3.87;;;6.50;99.90;;;;;;5001174;28;20204;-89
2023/04/13 02:21:06;;;;;;;6.23;3.90;;;6.60;99.90;;;;;;5001046;28;20711;-89
2023/04/13 02:23:33;;;;;;;4.73;4.10;;;6.60;99.90;;;;;;5001984;28;20223;-89
2023/04/13 02:25:59;;;;;;;4.33;4.00;;;6.60;99.90;;;;;;5001610;28;20227;-88
2023/04/13 02:28:26;;;;;;;4.57;4.20;;;6.60;99.90;;;;;;5000657;28;20207;-89
2023/04/13 02:30:54;;;;;;;4.83;4.43;;;6.70;99.90;;;;;;5017954;28;20260;-89
2023/04/13 02:33:20;;;;;;;5.70;4.47;;;6.60;99.90;;;;;;5018175;28;20226;-86
2023/04/13 02:35:47;;;;;;;3.90;3.60;;;6.60;99.90;;;;;;5001597;28;20180;-88
2023/04/13 02:38:14;;;;;;;4.60;4.03;;;6.70;99.90;;;;;;5017729;28;20267;-89
2023/04/13 02:40:41;;;;;;;4.10;3.80;;;6.70;99.90;;;;;;5000683;28;20263;-88
2023/04/13 02:43:11;;;;;;;6.40;4.20;;;6.70;99.90;;;;;;5018121;28;20192;-88
2023/04/13 02:45:38;;;;;;;3.90;3.60;;;6.80;99.90;;;;;;5000665;28;20176;-89
2023/04/13 02:48:04;;;;;;;4.30;3.90;;;6.90;99.90;;;;;;5018398;28;20172;-89
2023/04/13 02:50:30;;;;;;;4.17;3.77;;;6.90;99.90;;;;;;5002250;28;20215;-84
2023/04/13 02:52:55;;;;;;;4.27;3.77;;;6.90;99.90;;;;;;5021697;28;20184;-84
2023/04/13 02:55:21;;;;;;;4.60;4.07;;;7.00;99.90;;;;;;5022099;28;20218;-84
2023/04/13 02:57:48;;;;;;;4.13;3.80;;;7.00;99.90;;;;;;5004213;28;20203;-84
2023/04/13 03:00:15;;;;;;;4.10;3.77;;;7.00;99.90;;;;;;5022099;28;20173;-84
2023/04/13 03:02:41;;;;;;;6.57;3.83;;;7.00;99.90;;;;;;5020581;28;20191;-84
2023/04/13 03:05:07;;;;;;;5.57;3.80;;;7.00;99.90;;;;;;5003356;28;20219;-83
2023/04/13 03:07:35;;;;;;;6.17;3.97;;;7.10;99.90;;;;;;5021118;28;20180;-83
2023/04/13 03:10:03;;;;;;;5.67;3.90;;;7.00;99.90;;;;;;5003551;28;20176;-83
2023/04/13 03:12:30;;;;;;;5.13;3.80;;;7.10;99.90;;;;;;5020991;28;20182;-83
2023/04/13 03:14:56;;;;;;;3.87;3.67;;;7.00;99.90;;;;;;5020311;28;20286;-83
2023/04/13 03:17:21;;;;;;;4.27;3.93;;;7.00;99.90;;;;;;5003196;28;20250;-83
2023/04/13 03:19:48;;;;;;;5.67;4.10;;;7.00;99.90;;;;;;5003836;28;20527;-83
2023/04/13 03:22:14;;;;;;;5.43;3.80;;;7.00;99.90;;;;;;5004987;28;20171;-80
2023/04/13 03:24:40;;;;;;;4.33;3.70;;;7.00;99.90;;;;;;4999605;28;20196;-80
2023/04/13 03:27:06;;;;;;;3.83;3.63;;;6.90;99.90;;;;;;5016130;28;20172;-81
2023/04/13 03:29:32;;;;;;;4.23;3.87;;;6.90;99.90;;;;;;4999338;28;20187;-82
2023/04/13 03:31:58;;;;;;;4.37;4.03;;;7.00;99.90;;;;;;4999563;28;20191;-82
2023/04/13 03:34:23;;;;;;;6.30;4.00;;;7.00;99.90;;;;;;5017315;28;20199;-82
2023/04/13 03:36:49;;;;;;;5.13;3.90;;;7.00;99.90;;;;;;4999507;28;20589;-82
2023/04/13 03:39:15;;;;;;;4.43;3.67;;;6.90;99.90;;;;;;4999304;28;20191;-82
2023/04/13 03:41:41;;;;;;;4.13;3.83;;;6.90;99.90;;;;;;4999539;28;20233;-82
2023/04/13 03:44:08;;;;;;;5.10;4.00;;;6.90;99.90;;;;;;4999403;28;20230;-82
2023/04/13 03:46:36;;;;;;;3.93;3.70;;;6.90;99.90;;;;;;5002034;28;20180;-87
2023/04/13 03:49:05;;;;;;;5.23;3.63;;;6.80;99.90;;;;;;5001835;28;20278;-85
2023/04/13 03:51:31;;;;;;;4.10;3.80;;;6.80;99.90;;;;;;5002915;28;20191;-86
2023/04/13 03:53:57;;;;;;;5.37;3.80;;;6.80;99.90;;;;;;5020309;28;20195;-83
2023/04/13 03:56:23;;;;;;;5.00;3.80;;;6.70;99.90;;;;;;5001744;28;20188;-83
2023/04/13 03:58:49;;;;;;;3.87;3.60;;;6.60;99.90;;;;;;5019831;28;20202;-83
2023/04/13 04:01:15;;;;;;;4.77;4.37;;;6.70;99.90;;;;;;5019556;28;20242;-84
2023/04/13 04:03:41;;;;;;;3.90;3.60;;;6.60;99.90;;;;;;5002731;28;20200;-85
2023/04/13 04:06:07;;;;;;;4.40;4.10;;;6.60;99.90;;;;;;5003617;28;20206;-85
2023/04/13 04:08:33;;;;;;;3.90;3.70;;;6.60;99.90;;;;;;5003649;28;20653;-84
2023/04/13 04:10:59;;;;;;;5.10;3.70;;;6.60;99.90;;;;;;5003506;28;20190;-84
2023/04/13 04:13:24;;;;;;;3.90;3.70;;;6.60;99.90;;;;;;5002507;28;20200;-84
2023/04/13 04:15:50;;;;;;;5.27;3.90;;;6.60;99.90;;;;;;5002314;28;20167;-85
2023/04/13 04:18:16;;;;;;;3.90;3.70;;;6.60;99.90;;;;;;5019986;28;20282;-84
2023/04/13 04:20:42;;;;;;;4.33;4.00;;;6.70;99.90;;;;;;5003108;28;20285;-85
2023/04/13 04:23:08;;;;;;;3.93;3.73;;;6.70;99.90;;;;;;5001845;28;20218;-84
2023/04/13 04:25:36;;;;;;;8.10;3.70;;;6.70;99.90;;;;;;5002135;28;20176;-82
2023/04/13 04:28:03;;;;;;;4.77;4.00;;;6.70;99.90;;;;;;5019326;28;20239;-82
2023/04/13 04:30:32;;;;;;;4.07;3.67;;;6.70;99.90;;;;;;5001763;28;20180;-82
2023/04/13 04:32:58;;;;;;;5.50;4.17;;;6.70;99.90;;;;;;5019430;28;20195;-82
2023/04/13 04:35:32;;;;;;;4.60;3.83;;;6.70;99.90;;;;;;5019679;28;20643;-81
2023/04/13 04:38:05;;;;;;;4.17;3.80;;;6.70;99.90;;;;;;5001919;28;20246;-84
2023/04/13 04:40:34;;;;;;;4.20;3.90;;;6.70;99.90;;;;;;5001549;28;20223;-81
2023/04/13 04:43:00;;;;;;;4.13;3.70;;;6.70;99.90;;;;;;5002245;28;20592;-82
2023/04/13 04:45:26;;;;;;;5.17;3.77;;;6.70;99.90;;;;;;5002237;28;20180;-81
2023/04/13 04:47:56;;;;;;;5.73;3.90;;;6.70;99.90;;;;;;5002114;28;20187;-82
2023/04/13 04:50:22;;;;;;;4.23;3.90;;;6.70;99.90;;;;;;5019092;28;20233;-83
2023/04/13 04:52:48;;;;;;;4.43;3.80;;;6.70;99.90;;;;;;5019097;28;20180;-82
2023/04/13 04:55:14;;;;;;;3.97;3.67;;;6.70;99.90;;;;;;5019434;28;20179;-82
2023/04/13 04:57:40;;;;;;;4.03;3.73;;;6.60;99.90;;;;;;5002341;28;20277;-82
2023/04/13 05:00:14;;;;;;;4.47;4.07;;;6.60;99.90;;;;;;5020509;28;20153;-82
2023/04/13 05:02:40;;;;;;;3.90;3.70;;;6.60;99.90;;;;;;5001828;28;20179;-82
2023/04/13 05:05:06;;;;;;;4.93;4.00;;;6.60;99.90;;;;;;5002004;28;20192;-83
2023/04/13 05:07:31;;;;;;;4.43;4.00;;;6.60;99.90;;;;;;5017485;28;20192;-83
2023/04/13 05:09:59;;;;;;;4.20;3.90;;;6.50;99.90;;;;;;4999067;28;20295;-83
2023/04/13 05:12:25;;;;;;;4.30;3.90;;;6.50;99.90;;;;;;4999281;28;20266;-82
2023/04/13 05:14:51;;;;;;;4.43;3.97;;;6.50;99.90;;;;;;4999914;28;20782;-83
2023/04/13 05:17:17;;;;;;;7.07;4.37;;;6.40;99.90;;;;;;5018119;28;20204;-83
2023/04/13 05:19:46;;;;;;;4.40;4.00;;;6.30;99.90;;;;;;5018300;28;20183;-82
2023/04/13 05:22:14;;;;;;;5.03;4.10;;;6.40;99.90;;;;;;5018175;28;20183;-82
2023/04/13 05:24:39;;;;;;;4.37;3.97;;;6.30;99.90;;;;;;5000392;28;20208;-82
2023/04/13 05:27:08;;;;;;;4.57;4.10;;;6.30;99.90;;;;;;5017910;28;20632;-82
2023/04/13 05:29:35;;;;;;;6.27;4.30;;;6.20;99.90;;;;;;5000681;28;20211;-84
2023/04/13 05:32:04;;;;;;;5.30;4.00;;;6.20;99.90;;;;;;5018115;28;20194;-84
2023/04/13 05:34:31;;;;;;;4.33;3.90;;;6.20;99.90;;;;;;5018047;28;20250;-84
2023/04/13 05:36:57;;;;;;;4.47;4.07;;;6.20;99.90;;;;;;5017613;28;20619;-84
2023/04/13 05:39:23;;;;;;;6.10;4.23;;;6.30;99.90;;;;;;5018738;28;20164;-85
2023/04/13 05:41:50;;;;;;;4.40;4.00;;;6.30;99.90;;;;;;5018349;28;20592;-85
2023/04/13 05:44:16;;;;;;;4.70;4.30;;;6.30;99.90;;;;;;5018224;28;20541;-85
2023/04/13 05:46:41;;;;;;;4.90;3.87;;;6.30;99.90;;;;;;5018211;28;20202;-85
2023/04/13 05:49:08;;;;;;;4.60;4.30;;;6.40;99.90;;;;;;5000459;28;20629;-85
2023/04/13 05:51:34;;;;;;;6.40;4.73;;;6.40;99.90;;;;;;5000772;28;20187;-85
2023/04/13 05:54:00;;;;;;;4.90;4.50;;;6.40;99.90;;;;;;5000369;28;20684;-85
2023/04/13 05:56:28;;;;;;;7.37;4.50;;;6.50;99.90;;;;;;5018165;28;20176;-85
2023/04/13 05:58:54;;;;;;;4.93;4.40;;;6.50;99.90;;;;;;5000618;28;20180;-85
2023/04/13 06:01:20;;;;;;;5.27;4.77;;;6.50;99.90;;;;;;5000790;28;20175;-85
2023/04/13 06:03:46;;;;;;;4.90;4.50;;;6.50;99.90;;;;;;5017575;28;20582;-85
2023/04/13 06:06:12;;;;;;;4.83;4.23;;;6.60;99.90;;;;;;5017379;28;20176;-85
2023/04/13 06:08:40;;;;;;;4.37;4.10;;;6.60;99.90;;;;;;5000032;28;20180;-85
2023/04/13 06:11:06;;;;;;;5.07;4.60;;;6.60;99.90;;;;;;4999804;28;20184;-85
2023/04/13 06:13:32;;;;;;;5.10;4.70;;;6.60;99.90;;;;;;5017682;28;20269;-85
2023/04/13 06:15:58;;;;;;;5.73;4.60;;;6.70;99.90;;;;;;5017286;28;20168;-85
2023/04/13 06:18:25;;;;;;;5.67;5.20;;;6.70;99.90;;;;;;5017560;28;20707;-85
2023/04/13 06:20:52;;;;;;;6.43;5.00;;;6.80;99.90;;;;;;4999840;28;20176;-85
2023/04/13 06:23:18;;;;;;;6.10;5.10;;;6.80;99.90;;;;;;4999343;28;20207;-85
2023/04/13 06:25:44;;;;;;;6.07;4.70;;;6.90;99.90;;;;;;5017148;28;20176;-85
2023/04/13 06:28:11;;;;;;;5.43;5.00;;;7.00;99.90;;;;;;4998421;28;20188;-84
2023/04/13 06:30:37;;;;;;;5.20;4.80;;;7.10;99.90;;;;;;4999935;28;20187;-85
2023/04/13 06:33:03;;;;;;;5.23;4.73;;;7.10;99.90;;;;;;4999525;28;20179;-85
2023/04/13 06:35:30;;;;;;;5.10;4.70;;;7.20;99.90;;;;;;5016994;28;20190;-85
2023/04/13 06:37:58;;;;;;;5.07;4.60;;;7.30;99.90;;;;;;4999164;28;20215;-85
2023/04/13 06:40:26;;;;;;;5.30;4.80;;;7.40;99.90;;;;;;4999519;28;20184;-85
2023/04/13 06:42:53;;;;;;;8.17;5.13;;;7.40;99.90;;;;;;5017114;28;20175;-85
2023/04/13 06:45:19;;;;;;;5.03;4.57;;;7.50;99.90;;;;;;5016728;28;20254;-85
2023/04/13 06:47:46;;;;;;;5.07;4.60;;;7.60;99.90;;;;;;4999686;28;20188;-85
2023/04/13 06:50:14;;;;;;;4.83;4.43;;;7.80;99.90;;;;;;5017136;28;20191;-85
2023/04/13 06:52:44;;;;;;;5.87;4.60;;;7.90;99.90;;;;;;4999824;28;20597;-85
2023/04/13 06:55:11;;;;;;;8.50;5.13;;;7.90;99.90;;;;;;5019333;28;20222;-85
2023/04/13 06:57:36;;;;;;;5.03;4.53;;;7.80;99.90;;;;;;5016918;28;20202;-85
2023/04/13 07:00:05;;;;;;;5.10;4.60;;;8.00;99.90;;;;;;5016768;28;20180;-85
2023/04/13 07:02:30;;;;;;;6.27;4.60;;;8.00;99.90;;;;;;5017357;28;20168;-85
2023/04/13 07:04:57;;;;;;;6.13;4.80;;;8.10;99.90;;;;;;5016633;28;20663;-81
2023/04/13 07:07:22;;;;;;;4.73;4.33;;;8.20;99.90;;;;;;5016003;28;20702;-81
2023/04/13 07:09:48;;;;;;;5.30;4.80;;;8.30;99.90;;;;;;5016174;28;20225;-81
2023/04/13 07:12:58;;;;;;;5.00;4.60;;;8.30;99.90;;;;;;5015855;28;20184;-81
2023/04/13 07:15:24;;;;;;;5.10;4.70;;;8.30;99.90;;;;;;5015723;28;20203;-81
2023/04/13 07:17:51;;;;;;;5.13;4.60;;;8.10;99.90;;;;;;4998130;28;20273;-80
2023/04/13 07:20:16;;;;;;;5.30;4.80;;;8.10;99.90;;;;;;5015850;28;20172;-82
2023/04/13 07:22:42;;;;;;;7.67;4.63;;;8.00;99.90;;;;;;4998236;28;20550;-82
2023/04/13 07:25:08;;;;;;;4.63;4.33;;;8.00;99.90;;;;;;5015524;28;20192;-81
2023/04/13 07:27:34;;;;;;;6.73;5.00;;;8.00;99.90;;;;;;4997924;28;20183;-81
2023/04/13 07:30:00;;;;;;;4.57;4.27;;;8.10;99.90;;;;;;4998004;28;20180;-81
2023/04/13 07:32:27;;;;;;;6.67;4.30;;;8.20;99.90;;;;;;5015523;28;20180;-81
2023/04/13 07:34:55;;;;;;;5.83;4.40;;;8.30;99.90;;;;;;5015425;28;20287;-81
2023/04/13 07:37:21;;;;;;;5.93;4.17;;;8.30;99.90;;;;;;5015173;28;20287;-81
2023/04/13 07:39:48;;;;;;;5.23;4.30;;;8.30;99.90;;;;;;5015127;28;20268;-81
2023/04/13 07:42:14;;;;;;;4.37;4.07;;;8.20;99.90;;;;;;4997491;28;20537;-82
2023/04/13 07:44:48;;;;;;;5.10;4.70;;;8.20;99.90;;;;;;5014771;28;20278;-81
2023/04/13 07:47:15;;;;;;;5.03;4.53;;;8.30;99.90;;;;;;4997292;28;20274;-81
2023/04/13 07:49:41;;;;;;;4.83;4.43;;;8.30;99.90;;;;;;5015429;28;20187;-82
2023/04/13 07:55:29;;;;;;;4.87;4.47;;;8.40;99.90;;;;;;5015371;28;20235;-82
2023/04/13 07:57:55;;;;;;;4.50;4.20;;;8.50;99.90;;;;;;5014955;28;20207;-82
2023/04/13 08:00:42;;;;;;;4.50;4.20;;;8.60;99.90;;;;;;5014962;28;20259;-81
2023/04/13 08:03:07;;;;;;;4.50;4.03;;;8.70;99.90;;;;;;4997488;28;20167;-81
2023/04/13 08:05:35;;;;;;;4.60;4.20;;;9.00;99.90;;;;;;5015208;28;20254;-81
2023/04/13 08:08:01;;;;;;;4.40;4.00;;;9.30;99.90;;;;;;5015469;28;20182;-81
2023/04/13 08:10:27;;;;;;;5.00;4.30;;;9.40;99.90;;;;;;5015103;28;20175;-81
2023/04/13 08:12:52;;;;;;;5.80;4.47;;;9.60;99.90;;;;;;5015745;28;20644;-80
2023/04/13 08:15:18;;;;;;;4.10;3.80;;;9.40;99.90;;;;;;4998421;28;20199;-81
2023/04/13 08:17:44;;;;;;;4.03;3.73;;;9.20;99.90;;;;;;4998412;28;20239;-81
2023/04/13 08:20:10;;;;;;;4.67;4.20;;;9.20;99.90;;;;;;5015745;28;20270;-81
2023/04/13 08:22:35;;;;;;;4.53;4.10;;;9.40;99.90;;;;;;4997230;28;20187;-81
2023/04/13 08:25:03;;;;;;;5.07;3.77;;;9.80;99.90;;;;;;5014924;28;20261;-81
2023/04/13 08:27:28;;;;;;;3.95;3.50;;;10.60;99.90;;;;;;4997521;28;20187;-81
2023/04/13 08:29:55;;;;;;;3.50;3.25;;;11.30;99.90;;;;;;5015214;28;20180;-79
2023/04/13 08:32:21;;;;;;;3.88;3.55;;;12.00;99.90;;;;;;4997361;28;20556;-79
2023/04/13 08:34:47;;;;;;;3.33;3.13;;;12.60;99.90;;;;;;5015093;28;20203;-79
2023/04/13 08:37:14;;;;;;;3.67;3.20;;;12.50;99.90;;;;;;4997511;28;20218;-78
2023/04/13 08:39:40;;;;;;;4.63;3.30;;;11.50;99.90;;;;;;4997504;28;20234;-79
2023/04/13 08:42:06;;;;;;;5.80;3.40;;;10.70;99.90;;;;;;4997434;28;20168;-79
2023/04/13 08:44:32;;;;;;;5.60;3.80;;;10.10;99.90;;;;;;5014586;28;20191;-79
2023/04/13 08:46:59;;;;;;;5.90;4.10;;;9.60;99.90;;;;;;5015559;28;20176;-79
2023/04/13 08:49:26;;;;;;;4.93;3.60;;;9.30;99.90;;;;;;4998318;28;20271;-80
2023/04/13 08:51:55;;;;;;;6.17;3.70;;;9.30;99.90;;;;;;5017393;28;20164;-80
2023/04/13 08:54:23;;;;;;;3.97;3.60;;;9.50;99.90;;;;;;5018988;28;20191;-80
2023/04/13 08:56:49;;;;;;;4.07;3.73;;;9.40;99.90;;;;;;5001616;28;20576;-80
2023/04/13 08:59:16;;;;;;;7.43;4.00;;;9.40;99.90;;;;;;5019132;28;20168;-80
2023/04/13 09:01:47;;;;;;;4.13;3.67;;;9.50;99.90;;;;;;5001904;28;20190;-80
2023/04/13 09:04:16;;;;;;;5.53;3.70;;;9.60;99.90;;;;;;5019492;28;20188;-80
2023/04/13 09:06:44;;;;;;;4.00;3.60;;;9.50;99.90;;;;;;5019433;28;20186;-80
2023/04/13 09:09:14;;;;;;;5.07;3.90;;;9.40;99.90;;;;;;5001651;28;20208;-80
2023/04/13 09:11:41;;;;;;;4.10;3.80;;;9.40;99.90;;;;;;5018716;28;20184;-80
2023/04/13 09:14:08;;;;;;;4.07;3.70;;;9.40;99.90;;;;;;5018488;28;20225;-80
2023/04/13 09:16:41;;;;;;;5.67;4.10;;;9.40;99.90;;;;;;5018602;28;20180;-81
2023/04/13 09:19:08;;;;;;;4.10;3.80;;;9.30;99.90;;;;;;5018652;28;20195;-80
2023/04/13 09:21:39;;;;;;;5.57;3.80;;;9.40;99.90;;;;;;5019467;28;20161;-80
2023/04/13 09:24:06;;;;;;;4.93;4.20;;;9.40;99.90;;;;;;5020476;28;20196;-79
2023/04/13 09:26:46;;;;;;;4.07;3.70;;;9.40;99.90;;;;;;5002762;28;20474;-79
2023/04/13 09:29:16;;;;;;;4.40;4.00;;;9.60;99.90;;;;;;5017352;28;20176;-80
2023/04/13 09:31:44;;;;;;;4.50;4.10;;;9.50;99.90;;;;;;5031316;28;20180;-79
2023/04/13 09:34:10;;;;;;;4.57;3.97;;;9.50;99.90;;;;;;5008461;28;20199;-79
2023/04/13 09:36:36;;;;;;;7.60;4.70;;;9.60;99.90;;;;;;5025734;28;20251;-79
2023/04/13 09:39:03;;;;;;;5.93;3.90;;;9.40;99.90;;;;;;5008509;28;20194;-79
2023/04/13 09:41:32;;;;;;;4.67;4.13;;;9.40;99.90;;;;;;5024099;28;20236;-79
2023/04/13 09:44:14;;;;;;;6.53;4.07;;;9.30;99.90;;;;;;5004568;28;20199;-79
2023/04/13 09:46:40;;;;;;;5.10;4.23;;;9.30;99.90;;;;;;5006393;28;20179;-79
2023/04/13 09:49:06;;;;;;;8.63;4.50;;;9.40;99.90;;;;;;5024164;28;20172;-79
2023/04/13 09:51:39;;;;;;;5.03;4.30;;;9.50;99.90;;;;;;5021925;28;20587;-79
2023/04/13 09:54:05;;;;;;;6.00;4.47;;;9.30;99.90;;;;;;5022165;28;20200;-79
2023/04/13 09:56:51;;;;;;;4.93;4.37;;;9.40;99.90;;;;;;5022854;28;20239;-79
2023/04/13 09:59:18;;;;;;;7.00;4.50;;;9.30;99.90;;;;;;5006513;28;20168;-79
2023/04/13 10:01:44;;;;;;;7.30;4.50;;;9.30;99.90;;;;;;5025528;28;20188;-80
2023/04/13 10:04:11;;;;;;;6.17;4.10;;;9.30;99.90;;;;;;5024261;28;20198;-79
2023/04/13 10:06:45;;;;;;;7.00;4.60;;;9.20;99.90;;;;;;5023490;28;20179;-79
2023/04/13 10:09:11;;;;;;;7.57;4.43;;;9.10;99.90;;;;;;5005439;28;20172;-79
2023/04/13 10:11:43;;;;;;;4.70;4.27;;;9.20;99.90;;;;;;5023235;28;20542;-79
2023/04/13 10:14:17;;;;;;;4.87;4.37;;;9.20;99.90;;;;;;5002841;28;20215;-79
2023/04/13 10:17:06;;;;;;;7.77;4.50;;;9.50;99.90;;;;;;5020143;28;20218;-79
2023/04/13 10:19:52;;;;;;;5.20;4.30;;;10.00;99.90;;;;;;5021330;28;20171;-79
2023/04/13 10:22:21;;;;;;;5.03;4.13;;;10.20;99.90;;;;;;5004759;28;20172;-79
2023/04/13 10:24:47;;;;;;;5.07;4.00;;;10.10;99.90;;;;;;5021843;28;20274;-79
2023/04/13 10:27:21;;;;;;;5.10;4.00;;;10.10;99.90;;;;;;5004942;28;20179;-79
2023/04/13 10:29:47;;;;;;;4.17;3.77;;;10.50;99.90;;;;;;5003021;28;20246;-79
2023/04/13 10:32:41;;;;;;;5.03;4.30;;;10.90;99.90;;;;;;5002455;28;20195;-79
2023/04/13 10:35:11;;;;;;;4.57;3.97;;;10.90;99.90;;;;;;5016110;28;20220;-80
2023/04/13 10:37:38;;;;;;;6.30;4.13;;;10.90;99.90;;;;;;5019558;28;20195;-80
2023/04/13 10:40:06;;;;;;;6.07;4.20;;;10.50;99.90;;;;;;5018885;28;20176;-80
2023/04/13 10:42:45;;;;;;;4.30;3.90;;;10.40;99.90;;;;;;5001834;28;20188;-80
2023/04/13 10:45:21;;;;;;;5.63;3.80;;;10.40;99.90;;;;;;5001412;28;20199;-80
2023/04/13 10:47:47;;;;;;;5.63;4.03;;;10.40;99.90;;;;;;5019455;28;20164;-80
2023/04/13 10:50:21;;;;;;;7.03;4.10;;;10.40;99.90;;;;;;5020732;28;20176;-80
2023/04/13 10:52:56;;;;;;;4.37;3.97;;;10.30;99.90;;;;;;5020845;28;20195;-80
2023/04/13 10:55:26;;;;;;;6.43;4.07;;;10.30;99.90;;;;;;5020907;28;20209;-78
2023/04/13 10:57:54;;;;;;;8.52;4.35;;;10.30;99.90;;;;;;5018323;28;20207;-77
2023/04/13 11:00:23;;;;;;;5.43;4.13;;;10.60;99.90;;;;;;5016416;28;20203;-77
2023/04/13 11:02:50;;;;;;;6.27;4.10;;;10.60;99.90;;;;;;5016316;28;20681;-77
2023/04/13 11:05:18;;;;;;;5.47;4.20;;;10.40;99.90;;;;;;5016463;28;20196;-78
2023/04/13 11:07:44;;;;;;;7.47;4.47;;;10.20;99.90;;;;;;5016019;28;20211;-77
2023/04/13 11:10:10;;;;;;;10.23;4.53;;;10.10;99.90;;;;;;4998379;28;20671;-77
2023/04/13 11:12:36;;;;;;;6.47;4.65;;;10.00;99.90;;;;;;4997971;28;20230;-77
2023/04/13 11:15:02;;;;;;;9.27;4.63;;;10.00;99.90;;;;;;5014648;28;20613;-77
2023/04/13 11:17:27;;;;;;;13.10;5.23;;;10.00;99.90;;;;;;5015305;28;20235;-77
2023/04/13 11:19:54;;;;;;;8.27;5.10;;;10.10;99.90;;;;;;5015740;28;20176;-77
2023/04/13 11:22:26;;;;;;;7.87;4.53;;;10.30;99.90;;;;;;4998518;28;20211;-77
2023/04/13 11:24:52;;;;;;;10.57;4.80;;;10.50;99.90;;;;;;5016565;28;20590;-77
2023/04/13 11:27:23;;;;;;;12.97;5.03;;;10.50;99.90;;;;;;4998266;28;20271;-77
2023/04/13 11:29:59;;;;;;;7.05;4.60;;;10.60;99.90;;;;;;5015325;28;20179;-77
2023/04/13 11:32:25;;;;;;;16.23;5.20;;;10.70;99.90;;;;;;4997575;28;20617;-77
2023/04/13 11:35:11;;;;;;;8.63;4.53;;;10.70;99.90;;;;;;4997638;28;20231;-77
2023/04/13 11:37:41;;;;;;;5.77;4.30;;;10.90;99.90;;;;;;5015181;28;20200;-77
2023/04/13 11:40:09;;;;;;;10.90;4.38;;;11.10;99.90;;;;;;5015097;28;20195;-77
2023/04/13 11:42:41;;;;;;;7.28;4.30;;;11.30;99.90;;;;;;5014946;28;20219;-77
2023/04/13 11:45:08;;;;;;;8.40;4.65;;;11.30;99.90;;;;;;4997231;28;20709;-77
2023/04/13 11:47:37;;;;;;;14.13;4.70;;;11.60;99.90;;;;;;5014891;28;20180;-77
2023/04/13 11:50:04;;;;;;;6.63;4.35;;;11.80;99.90;;;;;;4997157;28;20648;-77
2023/04/13 11:52:31;;;;;;;11.75;4.32;;;11.60;99.90;;;;;;4997330;28;20228;-77
2023/04/13 11:54:57;;;;;;;12.20;4.90;;;11.70;99.90;;;;;;5014776;28;20579;-78
2023/04/13 11:57:23;;;;;;;7.03;4.10;;;11.50;99.90;;;;;;4996999;28;20242;-77
2023/04/13 11:59:52;;;;;;;12.25;4.80;;;11.30;99.90;;;;;;5015036;28;20172;-77
2023/04/13 12:02:30;;;;;;;8.20;4.57;;;11.00;99.90;;;;;;5014861;28;20273;-77
2023/04/13 12:04:56;;;;;;;11.80;4.97;;;10.90;99.90;;;;;;5014961;28;20224;-77
2023/04/13 12:07:23;;;;;;;8.60;4.55;;;11.00;99.90;;;;;;5014594;28;20183;-77
2023/04/13 12:09:50;;;;;;;10.10;4.38;;;11.20;99.90;;;;;;5014493;28;20212;-77
2023/04/13 12:12:23;;;;;;;9.60;4.53;;;11.30;99.90;;;;;;5014457;28;20238;-77
2023/04/13 12:14:59;;;;;;;10.18;4.60;;;11.40;99.90;;;;;;5014231;28;20227;-77
2023/04/13 12:17:34;;;;;;;12.95;5.13;;;11.50;99.90;;;;;;5013974;28;20563;-77
2023/04/13 12:20:01;;;;;;;6.57;4.30;;;11.40;99.90;;;;;;4996494;28;20366;-77
2023/04/13 12:22:37;;;;;;;8.10;4.97;;;11.40;99.90;;;;;;5014288;28;20189;-77
2023/04/13 12:25:20;;;;;;;8.45;4.78;;;11.40;99.90;;;;;;4996389;28;20612;-77
2023/04/13 12:27:52;;;;;;;11.23;4.50;;;11.40;99.90;;;;;;5014135;28;20186;-77
2023/04/13 12:30:22;;;;;;;11.13;4.77;;;11.20;99.90;;;;;;4996357;28;20274;-77
2023/04/13 12:32:51;;;;;;;9.73;4.70;;;11.10;99.90;;;;;;5013988;28;20262;-77
2023/04/13 12:35:20;;;;;;;10.43;5.18;;;11.10;99.90;;;;;;5014217;28;20195;-78
2023/04/13 12:37:47;;;;;;;8.63;4.43;;;11.00;99.90;;;;;;5014122;28;20204;-78
2023/04/13 12:40:15;;;;;;;11.60;4.65;;;11.10;99.90;;;;;;4996516;28;20188;-78
2023/04/13 12:42:42;;;;;;;11.80;5.57;;;11.00;99.90;;;;;;5014079;28;20601;-78
2023/04/13 12:45:09;;;;;;;12.53;4.93;;;10.80;99.90;;;;;;5014026;28;20199;-77
2023/04/13 12:47:36;;;;;;;13.17;5.33;;;10.70;99.90;;;;;;4996407;28;20302;-77
2023/04/13 12:50:06;;;;;;;9.67;4.20;;;10.60;99.90;;;;;;5014029;28;20183;-77
2023/04/13 12:52:32;;;;;;;8.80;4.90;;;10.60;99.90;;;;;;5014429;28;20187;-77
2023/04/13 12:54:59;;;;;;;9.10;4.30;;;10.50;99.90;;;;;;4996673;28;20676;-77
2023/04/13 12:57:27;;;;;;;8.13;4.23;;;10.70;99.90;;;;;;5014549;28;20204;-77
2023/04/13 12:59:53;;;;;;;10.15;4.35;;;11.00;99.90;;;;;;5014746;28;20184;-77
2023/04/13 13:02:20;;;;;;;11.15;4.35;;;11.10;99.90;;;;;;5014068;28;20176;-77
2023/04/13 13:04:46;;;;;;;8.02;3.83;;;11.40;99.90;;;;;;5014473;28;20192;-78
2023/04/13 13:07:12;;;;;;;8.00;3.97;;;11.60;99.90;;;;;;4996634;28;20549;-77
2023/04/13 13:09:37;;;;;;;5.82;3.72;;;11.80;99.90;;;;;;5013961;28;20180;-77
2023/04/13 13:12:03;;;;;;;9.75;4.03;;;12.20;99.90;;;;;;5013956;28;20242;-77